sensor_id;sensor_type;location;lat;lon;timestamp;temperature;humidity
39347;DHT22;26262;49.836;6.632;2023-05-16T00:01:16;11.50;99.90
39347;DHT22;26262;49.836;6.632;2023-05-16T00:03:42;11.60;99.90
39347;DHT22;26262;49.836;6.632;2023-05-16T00:06:08;11.50;99.90
39347;DHT22;26262;49.836;6.632;2023-05-16T00:08:34;11.50;99.90
39347;DHT22;26262;49.836;6.632;2023-05-16T00:11:00;11.50;99.90
39347;DHT22;26262;49.836;6.632;2023-05-16T00:13:26;11.50;99.90
39347;DHT22;26262;49.836;6.632;2023-05-16T00:15:52;11.40;99.90
39347;DHT22;26262;49.836;6.632;2023-05-16T00:18:20;11.40;99.90
39347;DHT22;26262;49.836;6.632;2023-05-16T00:20:47;11.40;99.90
39347;DHT22;26262;49.836;6.632;2023-05-16T00:23:13;11.50;99.90
39347;DHT22;26262;49.836;6.632;2023-05-16T00:25:39;11.40;99.90
39347;DHT22;26262;49.836;6.632;2023-05-16T00:28:05;11.40;99.90
39347;DHT22;26262;49.836;6.632;2023-05-16T00:30:31;11.40;99.90
39347;DHT22;26262;49.836;6.632;2023-05-16T00:32:57;11.40;99.90
39347;DHT22;26262;49.836;6.632;2023-05-16T00:35:23;11.40;99.90
39347;DHT22;26262;49.836;6.632;2023-05-16T00:37:49;11.40;99.90
39347;DHT22;26262;49.836;6.632;2023-05-16T00:40:15;11.40;99.90
39347;DHT22;26262;49.836;6.632;2023-05-16T00:42:40;11.30;99.90
39347;DHT22;26262;49.836;6.632;2023-05-16T00:45:07;11.30;99.90
39347;DHT22;26262;49.836;6.632;2023-05-16T00:47:32;11.50;99.90
39347;DHT22;26262;49.836;6.632;2023-05-16T00:49:58;11.30;99.90
39347;DHT22;26262;49.836;6.632;2023-05-16T00:52:24;11.40;99.90
39347;DHT22;26262;49.836;6.632;2023-05-16T00:54:50;11.30;99.90
39347;DHT22;26262;49.836;6.632;2023-05-16T00:57:16;11.30;99.90
39347;DHT22;26262;49.836;6.632;2023-05-16T00:59:44;11.40;99.90
39347;DHT22;26262;49.836;6.632;2023-05-16T01:02:11;11.30;99.90
39347;DHT22;26262;49.836;6.632;2023-05-16T01:04:37;11.20;99.90
39347;DHT22;26262;49.836;6.632;2023-05-16T01:07:04;11.30;99.90
39347;DHT22;26262;49.836;6.632;2023-05-16T01:09:29;11.30;99.90
39347;DHT22;26262;49.836;6.632;2023-05-16T01:17:21;11.30;99.90
39347;DHT22;26262;49.836;6.632;2023-05-16T01:25:01;11.40;99.90
39347;DHT22;26262;49.836;6.632;2023-05-16T01:27:30;11.40;99.90
39347;DHT22;26262;49.836;6.632;2023-05-16T01:29:56;11.40;99.90
39347;DHT22;26262;49.836;6.632;2023-05-16T01:32:21;11.40;99.90
39347;DHT22;26262;49.836;6.632;2023-05-16T01:34:49;11.50;99.90
39347;DHT22;26262;49.836;6.632;2023-05-16T01:37:16;11.40;99.90
39347;DHT22;26262;49.836;6.632;2023-05-16T01:39:50;11.40;99.90
39347;DHT22;26262;49.836;6.632;2023-05-16T01:42:18;11.30;99.90
39347;DHT22;26262;49.836;6.632;2023-05-16T01:45:07;11.20;99.90
39347;DHT22;26262;49.836;6.632;2023-05-16T01:47:35;11.10;99.90
39347;DHT22;26262;49.836;6.632;2023-05-16T01:50:11;11.10;99.90
39347;DHT22;26262;49.836;6.632;2023-05-16T01:52:47;11.20;99.90
39347;DHT22;26262;49.836;6.632;2023-05-16T01:55:22;11.10;99.90
39347;DHT22;26262;49.836;6.632;2023-05-16T01:57:48;11.00;99.90
39347;DHT22;26262;49.836;6.632;2023-05-16T02:00:14;11.00;99.90
39347;DHT22;26262;49.836;6.632;2023-05-16T02:02:40;11.00;99.90
39347;DHT22;26262;49.836;6.632;2023-05-16T02:05:06;10.90;99.90
39347;DHT22;26262;49.836;6.632;2023-05-16T02:07:32;11.00;99.90
39347;DHT22;26262;49.836;6.632;2023-05-16T02:09:58;11.00;99.90
39347;DHT22;26262;49.836;6.632;2023-05-16T02:12:24;10.80;99.90
39347;DHT22;26262;49.836;6.632;2023-05-16T02:14:49;10.90;99.90
39347;DHT22;26262;49.836;6.632;2023-05-16T02:17:15;10.80;99.90
39347;DHT22;26262;49.836;6.632;2023-05-16T02:19:41;10.90;99.90
39347;DHT22;26262;49.836;6.632;2023-05-16T02:22:06;10.90;99.90
39347;DHT22;26262;49.836;6.632;2023-05-16T02:24:32;10.90;99.90
39347;DHT22;26262;49.836;6.632;2023-05-16T02:26:57;10.90;99.90
39347;DHT22;26262;49.836;6.632;2023-05-16T02:29:23;10.80;99.90
39347;DHT22;26262;49.836;6.632;2023-05-16T02:31:48;10.70;99.90
39347;DHT22;26262;49.836;6.632;2023-05-16T02:34:14;10.60;99.90
39347;DHT22;26262;49.836;6.632;2023-05-16T02:36:40;10.60;99.90
39347;DHT22;26262;49.836;6.632;2023-05-16T02:39:05;10.50;99.90
39347;DHT22;26262;49.836;6.632;2023-05-16T02:41:33;10.60;99.90
39347;DHT22;26262;49.836;6.632;2023-05-16T02:43:58;10.70;99.90
39347;DHT22;26262;49.836;6.632;2023-05-16T02:46:29;10.80;99.90
39347;DHT22;26262;49.836;6.632;2023-05-16T02:48:55;10.80;99.90
39347;DHT22;26262;49.836;6.632;2023-05-16T02:51:23;10.60;99.90
39347;DHT22;26262;49.836;6.632;2023-05-16T02:53:49;10.50;99.90
39347;DHT22;26262;49.836;6.632;2023-05-16T02:56:15;10.50;99.90
39347;DHT22;26262;49.836;6.632;2023-05-16T02:58:41;10.40;99.90
39347;DHT22;26262;49.836;6.632;2023-05-16T03:01:07;10.50;99.90
39347;DHT22;26262;49.836;6.632;2023-05-16T03:03:34;10.50;99.90
39347;DHT22;26262;49.836;6.632;2023-05-16T03:06:00;10.40;99.90
39347;DHT22;26262;49.836;6.632;2023-05-16T03:08:26;10.30;99.90
39347;DHT22;26262;49.836;6.632;2023-05-16T03:10:52;10.30;99.90
39347;DHT22;26262;49.836;6.632;2023-05-16T03:13:17;10.20;99.90
39347;DHT22;26262;49.836;6.632;2023-05-16T03:15:43;10.10;99.90
39347;DHT22;26262;49.836;6.632;2023-05-16T03:18:09;10.10;99.90
39347;DHT22;26262;49.836;6.632;2023-05-16T03:20:36;10.20;99.90
39347;DHT22;26262;49.836;6.632;2023-05-16T03:23:02;10.00;99.90
39347;DHT22;26262;49.836;6.632;2023-05-16T03:25:27;10.00;99.90
39347;DHT22;26262;49.836;6.632;2023-05-16T03:27:53;10.10;99.90
39347;DHT22;26262;49.836;6.632;2023-05-16T03:30:18;9.90;99.90
39347;DHT22;26262;49.836;6.632;2023-05-16T03:32:45;9.90;99.90
39347;DHT22;26262;49.836;6.632;2023-05-16T03:35:10;9.90;99.90
39347;DHT22;26262;49.836;6.632;2023-05-16T03:37:37;9.90;99.90
39347;DHT22;26262;49.836;6.632;2023-05-16T03:40:02;10.00;99.90
39347;DHT22;26262;49.836;6.632;2023-05-16T03:42:30;10.00;99.90
39347;DHT22;26262;49.836;6.632;2023-05-16T03:44:56;9.80;99.90
39347;DHT22;26262;49.836;6.632;2023-05-16T03:47:22;9.80;99.90
39347;DHT22;26262;49.836;6.632;2023-05-16T03:49:47;9.80;99.90
39347;DHT22;26262;49.836;6.632;2023-05-16T03:52:13;9.60;99.90
39347;DHT22;26262;49.836;6.632;2023-05-16T03:54:38;9.60;99.90
39347;DHT22;26262;49.836;6.632;2023-05-16T03:57:05;9.70;99.90
39347;DHT22;26262;49.836;6.632;2023-05-16T03:59:30;9.70;99.90
39347;DHT22;26262;49.836;6.632;2023-05-16T04:01:56;9.70;99.90
39347;DHT22;26262;49.836;6.632;2023-05-16T04:04:21;9.70;99.90
39347;DHT22;26262;49.836;6.632;2023-05-16T04:06:47;9.80;99.90
39347;DHT22;26262;49.836;6.632;2023-05-16T04:09:12;9.70;99.90
39347;DHT22;26262;49.836;6.632;2023-05-16T04:11:38;9.70;99.90
39347;DHT22;26262;49.836;6.632;2023-05-16T04:14:03;9.60;99.90
39347;DHT22;26262;49.836;6.632;2023-05-16T04:16:29;9.70;99.90
39347;DHT22;26262;49.836;6.632;2023-05-16T04:18:55;9.70;99.90
39347;DHT22;26262;49.836;6.632;2023-05-16T04:21:21;9.70;99.90
39347;DHT22;26262;49.836;6.632;2023-05-16T04:23:47;9.70;99.90
39347;DHT22;26262;49.836;6.632;2023-05-16T04:26:13;9.70;99.90
39347;DHT22;26262;49.836;6.632;2023-05-16T04:28:39;9.70;99.90
39347;DHT22;26262;49.836;6.632;2023-05-16T04:31:05;9.80;99.90
39347;DHT22;26262;49.836;6.632;2023-05-16T04:33:32;9.90;99.90
39347;DHT22;26262;49.836;6.632;2023-05-16T04:35:58;9.90;99.90
39347;DHT22;26262;49.836;6.632;2023-05-16T04:38:24;10.00;99.90
39347;DHT22;26262;49.836;6.632;2023-05-16T04:40:50;10.00;99.90
39347;DHT22;26262;49.836;6.632;2023-05-16T04:43:16;10.10;99.90
39347;DHT22;26262;49.836;6.632;2023-05-16T04:45:42;10.00;99.90
39347;DHT22;26262;49.836;6.632;2023-05-16T04:48:07;10.10;99.90
39347;DHT22;26262;49.836;6.632;2023-05-16T04:50:33;10.10;99.90
39347;DHT22;26262;49.836;6.632;2023-05-16T04:52:58;10.10;99.90
39347;DHT22;26262;49.836;6.632;2023-05-16T04:55:24;10.00;99.90
39347;DHT22;26262;49.836;6.632;2023-05-16T04:57:50;10.00;99.90
39347;DHT22;26262;49.836;6.632;2023-05-16T05:00:16;10.00;99.90
39347;DHT22;26262;49.836;6.632;2023-05-16T05:02:42;10.00;99.90
39347;DHT22;26262;49.836;6.632;2023-05-16T05:05:08;10.00;99.90
39347;DHT22;26262;49.836;6.632;2023-05-16T05:07:34;9.90;99.90
39347;DHT22;26262;49.836;6.632;2023-05-16T05:10:00;9.70;99.90
39347;DHT22;26262;49.836;6.632;2023-05-16T05:12:25;9.80;99.90
39347;DHT22;26262;49.836;6.632;2023-05-16T05:14:52;9.80;99.90
39347;DHT22;26262;49.836;6.632;2023-05-16T05:17:19;9.90;99.90
39347;DHT22;26262;49.836;6.632;2023-05-16T05:19:45;9.90;99.90
39347;DHT22;26262;49.836;6.632;2023-05-16T05:22:11;10.00;99.90
39347;DHT22;26262;49.836;6.632;2023-05-16T05:24:36;10.00;99.90
39347;DHT22;26262;49.836;6.632;2023-05-16T05:27:02;9.70;99.90
39347;DHT22;26262;49.836;6.632;2023-05-16T05:29:28;9.60;99.90
39347;DHT22;26262;49.836;6.632;2023-05-16T05:31:54;9.40;99.90
39347;DHT22;26262;49.836;6.632;2023-05-16T05:34:19;9.40;99.90
39347;DHT22;26262;49.836;6.632;2023-05-16T05:36:45;9.40;99.90
39347;DHT22;26262;49.836;6.632;2023-05-16T05:39:11;9.40;99.90
39347;DHT22;26262;49.836;6.632;2023-05-16T05:41:38;9.40;99.90
39347;DHT22;26262;49.836;6.632;2023-05-16T05:44:04;9.60;99.90
39347;DHT22;26262;49.836;6.632;2023-05-16T05:46:30;9.50;99.90
39347;DHT22;26262;49.836;6.632;2023-05-16T05:48:56;9.50;99.90
39347;DHT22;26262;49.836;6.632;2023-05-16T05:51:23;9.60;99.90
39347;DHT22;26262;49.836;6.632;2023-05-16T05:53:48;9.50;99.90
39347;DHT22;26262;49.836;6.632;2023-05-16T05:56:14;9.50;99.90
39347;DHT22;26262;49.836;6.632;2023-05-16T05:58:40;9.50;99.90
39347;DHT22;26262;49.836;6.632;2023-05-16T06:01:10;9.60;99.90
39347;DHT22;26262;49.836;6.632;2023-05-16T06:03:35;9.60;99.90
39347;DHT22;26262;49.836;6.632;2023-05-16T06:06:02;9.50;99.90
39347;DHT22;26262;49.836;6.632;2023-05-16T06:08:28;9.50;99.90
39347;DHT22;26262;49.836;6.632;2023-05-16T06:10:53;9.40;99.90
39347;DHT22;26262;49.836;6.632;2023-05-16T06:13:19;9.30;99.90
39347;DHT22;26262;49.836;6.632;2023-05-16T06:15:51;9.40;99.90
39347;DHT22;26262;49.836;6.632;2023-05-16T06:18:17;9.30;99.90
39347;DHT22;26262;49.836;6.632;2023-05-16T06:20:42;9.30;99.90
39347;DHT22;26262;49.836;6.632;2023-05-16T06:23:08;9.40;99.90
39347;DHT22;26262;49.836;6.632;2023-05-16T06:25:33;9.20;99.90
39347;DHT22;26262;49.836;6.632;2023-05-16T06:27:59;9.30;99.90
39347;DHT22;26262;49.836;6.632;2023-05-16T06:30:24;9.40;99.90
39347;DHT22;26262;49.836;6.632;2023-05-16T06:32:50;9.30;99.90
39347;DHT22;26262;49.836;6.632;2023-05-16T06:35:16;9.30;99.90
39347;DHT22;26262;49.836;6.632;2023-05-16T06:37:41;9.30;99.90
39347;DHT22;26262;49.836;6.632;2023-05-16T06:40:07;9.30;99.90
39347;DHT22;26262;49.836;6.632;2023-05-16T06:42:33;9.20;99.90
39347;DHT22;26262;49.836;6.632;2023-05-16T06:44:58;9.10;99.90
39347;DHT22;26262;49.836;6.632;2023-05-16T06:47:24;9.10;99.90
39347;DHT22;26262;49.836;6.632;2023-05-16T06:49:49;9.20;99.90
39347;DHT22;26262;49.836;6.632;2023-05-16T06:52:15;9.10;99.90
39347;DHT22;26262;49.836;6.632;2023-05-16T06:54:41;9.00;99.90
39347;DHT22;26262;49.836;6.632;2023-05-16T06:57:07;8.90;99.90
39347;DHT22;26262;49.836;6.632;2023-05-16T06:59:35;8.90;99.90
39347;DHT22;26262;49.836;6.632;2023-05-16T07:02:01;9.00;99.90
39347;DHT22;26262;49.836;6.632;2023-05-16T07:04:26;8.90;99.90
39347;DHT22;26262;49.836;6.632;2023-05-16T07:06:52;8.90;99.90
39347;DHT22;26262;49.836;6.632;2023-05-16T07:09:19;8.80;99.90
39347;DHT22;26262;49.836;6.632;2023-05-16T07:11:45;8.90;99.90
39347;DHT22;26262;49.836;6.632;2023-05-16T07:14:10;9.00;99.90
39347;DHT22;26262;49.836;6.632;2023-05-16T07:16:36;9.00;99.90
39347;DHT22;26262;49.836;6.632;2023-05-16T07:19:02;9.10;99.90
39347;DHT22;26262;49.836;6.632;2023-05-16T07:21:28;9.10;99.90
39347;DHT22;26262;49.836;6.632;2023-05-16T07:23:53;9.10;99.90
39347;DHT22;26262;49.836;6.632;2023-05-16T07:26:19;9.10;99.90
39347;DHT22;26262;49.836;6.632;2023-05-16T07:28:48;9.40;99.90
39347;DHT22;26262;49.836;6.632;2023-05-16T07:31:14;9.50;99.90
39347;DHT22;26262;49.836;6.632;2023-05-16T07:33:40;9.50;99.90
39347;DHT22;26262;49.836;6.632;2023-05-16T07:36:06;9.70;99.90
39347;DHT22;26262;49.836;6.632;2023-05-16T07:38:32;9.90;99.90
39347;DHT22;26262;49.836;6.632;2023-05-16T07:40:57;9.90;99.90
39347;DHT22;26262;49.836;6.632;2023-05-16T07:43:23;9.90;99.90
39347;DHT22;26262;49.836;6.632;2023-05-16T07:45:49;9.90;99.90
39347;DHT22;26262;49.836;6.632;2023-05-16T07:48:14;9.70;99.90
39347;DHT22;26262;49.836;6.632;2023-05-16T07:50:41;9.60;99.90
39347;DHT22;26262;49.836;6.632;2023-05-16T07:53:07;9.50;99.90
39347;DHT22;26262;49.836;6.632;2023-05-16T07:55:32;9.70;99.90
39347;DHT22;26262;49.836;6.632;2023-05-16T07:57:58;9.90;99.90
39347;DHT22;26262;49.836;6.632;2023-05-16T08:00:23;9.90;99.90
39347;DHT22;26262;49.836;6.632;2023-05-16T08:02:49;10.00;99.90
39347;DHT22;26262;49.836;6.632;2023-05-16T08:05:15;10.10;99.90
39347;DHT22;26262;49.836;6.632;2023-05-16T08:07:41;10.30;99.90
39347;DHT22;26262;49.836;6.632;2023-05-16T08:10:06;10.50;99.90
39347;DHT22;26262;49.836;6.632;2023-05-16T08:12:32;10.70;99.90
39347;DHT22;26262;49.836;6.632;2023-05-16T08:14:58;10.80;99.90
39347;DHT22;26262;49.836;6.632;2023-05-16T08:17:23;10.90;99.90
39347;DHT22;26262;49.836;6.632;2023-05-16T08:19:49;11.00;99.90
39347;DHT22;26262;49.836;6.632;2023-05-16T08:22:14;11.30;99.90
39347;DHT22;26262;49.836;6.632;2023-05-16T08:24:40;11.40;99.90
39347;DHT22;26262;49.836;6.632;2023-05-16T08:27:06;11.50;99.90
39347;DHT22;26262;49.836;6.632;2023-05-16T08:29:33;11.60;99.90
39347;DHT22;26262;49.836;6.632;2023-05-16T08:31:58;11.60;99.90
39347;DHT22;26262;49.836;6.632;2023-05-16T08:34:24;11.60;99.90
39347;DHT22;26262;49.836;6.632;2023-05-16T08:36:49;11.80;99.90
39347;DHT22;26262;49.836;6.632;2023-05-16T08:39:15;12.10;99.90
39347;DHT22;26262;49.836;6.632;2023-05-16T08:41:41;12.20;99.90
39347;DHT22;26262;49.836;6.632;2023-05-16T08:44:06;12.10;99.90
39347;DHT22;26262;49.836;6.632;2023-05-16T08:46:33;12.10;99.90
39347;DHT22;26262;49.836;6.632;2023-05-16T08:49:00;11.90;99.90
39347;DHT22;26262;49.836;6.632;2023-05-16T08:51:27;11.50;99.90
39347;DHT22;26262;49.836;6.632;2023-05-16T08:54:01;11.40;99.90
39347;DHT22;26262;49.836;6.632;2023-05-16T08:56:27;11.60;99.90
39347;DHT22;26262;49.836;6.632;2023-05-16T08:58:54;12.10;99.90
39347;DHT22;26262;49.836;6.632;2023-05-16T09:01:21;12.50;99.90
39347;DHT22;26262;49.836;6.632;2023-05-16T09:03:51;13.00;99.90
39347;DHT22;26262;49.836;6.632;2023-05-16T09:06:17;13.30;99.90
39347;DHT22;26262;49.836;6.632;2023-05-16T09:08:43;13.50;99.90
39347;DHT22;26262;49.836;6.632;2023-05-16T09:11:09;13.90;99.90
39347;DHT22;26262;49.836;6.632;2023-05-16T09:13:34;14.10;99.90
39347;DHT22;26262;49.836;6.632;2023-05-16T09:16:18;14.10;99.90
39347;DHT22;26262;49.836;6.632;2023-05-16T09:19:06;14.30;99.90
39347;DHT22;26262;49.836;6.632;2023-05-16T09:21:33;14.40;99.90
39347;DHT22;26262;49.836;6.632;2023-05-16T09:24:06;14.20;99.90
39347;DHT22;26262;49.836;6.632;2023-05-16T09:26:33;14.10;99.90
39347;DHT22;26262;49.836;6.632;2023-05-16T09:28:59;14.30;99.90
39347;DHT22;26262;49.836;6.632;2023-05-16T09:31:27;14.70;99.90
39347;DHT22;26262;49.836;6.632;2023-05-16T09:33:56;14.10;99.90
39347;DHT22;26262;49.836;6.632;2023-05-16T09:36:22;13.50;99.90
39347;DHT22;26262;49.836;6.632;2023-05-16T09:38:51;13.00;99.90
39347;DHT22;26262;49.836;6.632;2023-05-16T09:41:17;13.40;99.90
39347;DHT22;26262;49.836;6.632;2023-05-16T09:43:43;13.90;99.90
39347;DHT22;26262;49.836;6.632;2023-05-16T09:46:13;14.30;99.90
39347;DHT22;26262;49.836;6.632;2023-05-16T09:48:46;14.60;99.90
39347;DHT22;26262;49.836;6.632;2023-05-16T09:51:12;14.80;99.90
39347;DHT22;26262;49.836;6.632;2023-05-16T09:53:39;14.90;99.90
39347;DHT22;26262;49.836;6.632;2023-05-16T09:56:10;14.90;99.90
39347;DHT22;26262;49.836;6.632;2023-05-16T09:58:38;14.60;99.90
39347;DHT22;26262;49.836;6.632;2023-05-16T10:01:05;14.10;99.90
39347;DHT22;26262;49.836;6.632;2023-05-16T10:03:34;13.80;99.90
39347;DHT22;26262;49.836;6.632;2023-05-16T10:06:00;13.70;99.90
39347;DHT22;26262;49.836;6.632;2023-05-16T10:08:26;13.80;99.90
39347;DHT22;26262;49.836;6.632;2023-05-16T10:10:55;13.60;99.90
39347;DHT22;26262;49.836;6.632;2023-05-16T10:13:23;14.10;99.90
39347;DHT22;26262;49.836;6.632;2023-05-16T10:15:50;14.70;99.90
39347;DHT22;26262;49.836;6.632;2023-05-16T10:18:17;15.10;99.90
39347;DHT22;26262;49.836;6.632;2023-05-16T10:20:45;15.70;99.90
39347;DHT22;26262;49.836;6.632;2023-05-16T10:23:16;16.00;99.90
39347;DHT22;26262;49.836;6.632;2023-05-16T10:25:42;16.10;98.90
39347;DHT22;26262;49.836;6.632;2023-05-16T10:28:09;16.50;99.40
39347;DHT22;26262;49.836;6.632;2023-05-16T10:30:36;16.50;97.70
39347;DHT22;26262;49.836;6.632;2023-05-16T10:33:05;16.40;98.00
39347;DHT22;26262;49.836;6.632;2023-05-16T10:35:31;16.30;96.30
39347;DHT22;26262;49.836;6.632;2023-05-16T10:37:57;16.40;95.90
39347;DHT22;26262;49.836;6.632;2023-05-16T10:40:23;16.60;96.80
39347;DHT22;26262;49.836;6.632;2023-05-16T10:43:00;16.80;95.60
39347;DHT22;26262;49.836;6.632;2023-05-16T10:45:26;16.80;94.00
39347;DHT22;26262;49.836;6.632;2023-05-16T10:47:56;16.70;93.90
39347;DHT22;26262;49.836;6.632;2023-05-16T10:53:23;16.40;94.70
39347;DHT22;26262;49.836;6.632;2023-05-16T10:56:11;15.70;95.70
39347;DHT22;26262;49.836;6.632;2023-05-16T11:06:29;16.60;97.50
39347;DHT22;26262;49.836;6.632;2023-05-16T11:09:20;17.10;96.40
39347;DHT22;26262;49.836;6.632;2023-05-16T11:12:02;17.50;96.30
39347;DHT22;26262;49.836;6.632;2023-05-16T11:14:35;17.60;92.50
39347;DHT22;26262;49.836;6.632;2023-05-16T11:19:41;17.40;94.30
39347;DHT22;26262;49.836;6.632;2023-05-16T11:24:37;17.90;92.20
39347;DHT22;26262;49.836;6.632;2023-05-16T11:27:04;18.20;92.80
39347;DHT22;26262;49.836;6.632;2023-05-16T11:29:31;18.40;92.10
39347;DHT22;26262;49.836;6.632;2023-05-16T11:31:59;18.70;91.30
39347;DHT22;26262;49.836;6.632;2023-05-16T11:34:25;19.00;90.00
39347;DHT22;26262;49.836;6.632;2023-05-16T11:36:51;19.40;90.00
39347;DHT22;26262;49.836;6.632;2023-05-16T11:39:17;19.00;86.90
39347;DHT22;26262;49.836;6.632;2023-05-16T11:41:43;18.70;90.40
39347;DHT22;26262;49.836;6.632;2023-05-16T11:44:12;17.80;91.50
39347;DHT22;26262;49.836;6.632;2023-05-16T11:46:39;18.30;92.90
39347;DHT22;26262;49.836;6.632;2023-05-16T11:49:10;18.80;91.20
39347;DHT22;26262;49.836;6.632;2023-05-16T11:51:40;19.40;89.40
39347;DHT22;26262;49.836;6.632;2023-05-16T11:54:08;19.00;87.40
39347;DHT22;26262;49.836;6.632;2023-05-16T11:56:35;18.10;90.50
39347;DHT22;26262;49.836;6.632;2023-05-16T11:59:01;17.70;89.10
39347;DHT22;26262;49.836;6.632;2023-05-16T12:01:32;18.10;89.90
39347;DHT22;26262;49.836;6.632;2023-05-16T12:03:58;17.70;88.40
39347;DHT22;26262;49.836;6.632;2023-05-16T12:06:24;17.20;91.00
39347;DHT22;26262;49.836;6.632;2023-05-16T12:08:51;17.60;87.20
39347;DHT22;26262;49.836;6.632;2023-05-16T12:11:17;18.30;90.30
39347;DHT22;26262;49.836;6.632;2023-05-16T12:13:42;18.50;90.50
39347;DHT22;26262;49.836;6.632;2023-05-16T12:16:08;18.90;90.50
39347;DHT22;26262;49.836;6.632;2023-05-16T12:18:35;18.20;92.40
39347;DHT22;26262;49.836;6.632;2023-05-16T12:21:03;18.00;89.70
39347;DHT22;26262;49.836;6.632;2023-05-16T12:23:32;18.60;90.20
39347;DHT22;26262;49.836;6.632;2023-05-16T12:25:57;19.20;90.40
39347;DHT22;26262;49.836;6.632;2023-05-16T12:28:30;19.60;89.90
39347;DHT22;26262;49.836;6.632;2023-05-16T12:30:57;18.80;86.60
39347;DHT22;26262;49.836;6.632;2023-05-16T12:33:23;18.40;90.10
39347;DHT22;26262;49.836;6.632;2023-05-16T12:35:49;17.90;88.20
39347;DHT22;26262;49.836;6.632;2023-05-16T12:38:18;18.30;90.00
39347;DHT22;26262;49.836;6.632;2023-05-16T12:40:44;18.70;86.20
39347;DHT22;26262;49.836;6.632;2023-05-16T12:43:19;19.20;87.80
39347;DHT22;26262;49.836;6.632;2023-05-16T12:45:50;18.60;88.80
39347;DHT22;26262;49.836;6.632;2023-05-16T12:48:16;18.30;87.50
39347;DHT22;26262;49.836;6.632;2023-05-16T12:50:42;18.00;89.50
39347;DHT22;26262;49.836;6.632;2023-05-16T12:53:11;18.10;88.50
39347;DHT22;26262;49.836;6.632;2023-05-16T12:55:37;17.90;89.10
39347;DHT22;26262;49.836;6.632;2023-05-16T12:58:03;17.90;84.60
39347;DHT22;26262;49.836;6.632;2023-05-16T13:00:28;17.60;87.40
39347;DHT22;26262;49.836;6.632;2023-05-16T13:02:56;18.30;87.80
39347;DHT22;26262;49.836;6.632;2023-05-16T13:05:21;19.00;86.60
39347;DHT22;26262;49.836;6.632;2023-05-16T13:07:48;18.70;84.20
39347;DHT22;26262;49.836;6.632;2023-05-16T13:10:16;18.40;84.50
39347;DHT22;26262;49.836;6.632;2023-05-16T13:12:42;18.10;84.00
39347;DHT22;26262;49.836;6.632;2023-05-16T13:15:09;17.80;85.60
39347;DHT22;26262;49.836;6.632;2023-05-16T13:17:37;17.40;85.10
39347;DHT22;26262;49.836;6.632;2023-05-16T13:20:03;17.10;86.30
39347;DHT22;26262;49.836;6.632;2023-05-16T13:22:34;16.60;88.90
39347;DHT22;26262;49.836;6.632;2023-05-16T13:25:00;16.70;89.70
39347;DHT22;26262;49.836;6.632;2023-05-16T13:27:25;16.60;89.70
39347;DHT22;26262;49.836;6.632;2023-05-16T13:29:51;16.40;90.60
39347;DHT22;26262;49.836;6.632;2023-05-16T13:32:16;16.60;90.10
39347;DHT22;26262;49.836;6.632;2023-05-16T13:34:43;16.70;90.50
39347;DHT22;26262;49.836;6.632;2023-05-16T13:37:08;16.70;90.40
39347;DHT22;26262;49.836;6.632;2023-05-16T13:39:34;16.60;89.20
39347;DHT22;26262;49.836;6.632;2023-05-16T13:42:00;16.70;89.40
39347;DHT22;26262;49.836;6.632;2023-05-16T13:44:27;16.60;91.20
39347;DHT22;26262;49.836;6.632;2023-05-16T13:46:53;16.20;89.10
39347;DHT22;26262;49.836;6.632;2023-05-16T13:49:18;16.30;90.00
39347;DHT22;26262;49.836;6.632;2023-05-16T13:51:44;17.00;92.50
39347;DHT22;26262;49.836;6.632;2023-05-16T13:54:09;17.80;91.40
39347;DHT22;26262;49.836;6.632;2023-05-16T13:56:35;17.60;86.60
39347;DHT22;26262;49.836;6.632;2023-05-16T13:59:00;17.60;87.60
39347;DHT22;26262;49.836;6.632;2023-05-16T14:01:26;17.30;87.90
39347;DHT22;26262;49.836;6.632;2023-05-16T14:03:52;17.10;89.00
39347;DHT22;26262;49.836;6.632;2023-05-16T14:06:17;16.90;90.10
39347;DHT22;26262;49.836;6.632;2023-05-16T14:08:43;16.60;90.50
39347;DHT22;26262;49.836;6.632;2023-05-16T14:11:08;16.50;90.60
39347;DHT22;26262;49.836;6.632;2023-05-16T14:13:34;16.30;89.70
39347;DHT22;26262;49.836;6.632;2023-05-16T14:16:00;16.00;89.70
39347;DHT22;26262;49.836;6.632;2023-05-16T14:18:26;16.00;91.20
39347;DHT22;26262;49.836;6.632;2023-05-16T14:20:52;16.20;91.00
39347;DHT22;26262;49.836;6.632;2023-05-16T14:23:20;16.90;89.20
39347;DHT22;26262;49.836;6.632;2023-05-16T14:25:46;17.30;87.80
39347;DHT22;26262;49.836;6.632;2023-05-16T14:28:11;17.70;86.90
39347;DHT22;26262;49.836;6.632;2023-05-16T14:30:37;17.70;86.90
39347;DHT22;26262;49.836;6.632;2023-05-16T14:33:03;17.70;86.40
39347;DHT22;26262;49.836;6.632;2023-05-16T14:35:28;17.30;86.80
39347;DHT22;26262;49.836;6.632;2023-05-16T14:37:54;17.00;86.20
39347;DHT22;26262;49.836;6.632;2023-05-16T14:40:19;16.90;85.50
39347;DHT22;26262;49.836;6.632;2023-05-16T14:42:46;16.70;84.80
39347;DHT22;26262;49.836;6.632;2023-05-16T14:45:11;16.90;86.10
39347;DHT22;26262;49.836;6.632;2023-05-16T14:47:37;17.20;84.10
39347;DHT22;26262;49.836;6.632;2023-05-16T14:50:02;17.50;83.50
39347;DHT22;26262;49.836;6.632;2023-05-16T14:52:28;17.70;82.50
39347;DHT22;26262;49.836;6.632;2023-05-16T14:54:54;18.00;82.90
39347;DHT22;26262;49.836;6.632;2023-05-16T14:57:19;18.00;81.20
39347;DHT22;26262;49.836;6.632;2023-05-16T14:59:45;17.60;82.70
39347;DHT22;26262;49.836;6.632;2023-05-16T15:02:12;17.30;83.30
39347;DHT22;26262;49.836;6.632;2023-05-16T15:04:38;17.10;83.90
39347;DHT22;26262;49.836;6.632;2023-05-16T15:07:03;16.80;83.40
39347;DHT22;26262;49.836;6.632;2023-05-16T15:09:29;16.40;85.10
39347;DHT22;26262;49.836;6.632;2023-05-16T15:11:55;16.20;87.20
39347;DHT22;26262;49.836;6.632;2023-05-16T15:14:21;16.30;88.40
39347;DHT22;26262;49.836;6.632;2023-05-16T15:16:46;16.10;89.80
39347;DHT22;26262;49.836;6.632;2023-05-16T15:19:12;16.00;89.50
39347;DHT22;26262;49.836;6.632;2023-05-16T15:21:37;16.20;89.60
39347;DHT22;26262;49.836;6.632;2023-05-16T15:24:03;16.70;90.10
39347;DHT22;26262;49.836;6.632;2023-05-16T15:26:28;17.00;87.70
39347;DHT22;26262;49.836;6.632;2023-05-16T15:28:54;16.70;87.60
39347;DHT22;26262;49.836;6.632;2023-05-16T15:31:20;16.90;89.30
39347;DHT22;26262;49.836;6.632;2023-05-16T15:33:46;17.00;89.30
39347;DHT22;26262;49.836;6.632;2023-05-16T15:36:12;16.90;89.20
39347;DHT22;26262;49.836;6.632;2023-05-16T15:38:38;16.80;87.40
39347;DHT22;26262;49.836;6.632;2023-05-16T15:41:08;16.70;87.80
39347;DHT22;26262;49.836;6.632;2023-05-16T15:43:34;16.70;88.20
39347;DHT22;26262;49.836;6.632;2023-05-16T15:46:00;16.70;86.70
39347;DHT22;26262;49.836;6.632;2023-05-16T15:48:25;16.90;88.00
39347;DHT22;26262;49.836;6.632;2023-05-16T15:50:51;16.80;87.80
39347;DHT22;26262;49.836;6.632;2023-05-16T15:53:17;15.90;87.80
39347;DHT22;26262;49.836;6.632;2023-05-16T15:55:42;16.10;87.40
39347;DHT22;26262;49.836;6.632;2023-05-16T15:58:08;16.30;87.00